createdAt,value
2019-01-30T00:03:36.800Z,-5.60
2019-01-30T00:08:21.580Z,-5.90
2019-01-30T00:13:06.508Z,-6.00
2019-01-30T00:17:51.406Z,-6.10
2019-01-30T00:22:36.038Z,-6.10
2019-01-30T00:27:20.712Z,-6.10
2019-01-30T00:32:05.542Z,-6.10
2019-01-30T00:36:50.124Z,-6.10
2019-01-30T00:41:34.788Z,-6.10
2019-01-30T00:46:19.417Z,-5.90
2019-01-30T00:51:04.228Z,-5.80
2019-01-30T00:55:48.972Z,-5.70
2019-01-30T01:00:33.840Z,-5.70
2019-01-30T01:05:18.595Z,-5.60
2019-01-30T01:10:03.580Z,-5.30
2019-01-30T01:14:48.179Z,-5.40
2019-01-30T01:19:32.768Z,-5.30
2019-01-30T01:24:17.506Z,-5.30
2019-01-30T01:29:02.126Z,-5.40
2019-01-30T01:33:46.642Z,-5.50
2019-01-30T01:38:31.377Z,-5.50
2019-01-30T01:43:16.233Z,-5.30
2019-01-30T01:48:00.968Z,-5.30
2019-01-30T01:52:46.879Z,-5.30
2019-01-30T01:57:31.630Z,-5.40
2019-01-30T02:02:16.397Z,-5.40
2019-01-30T02:07:01.086Z,-5.40
2019-01-30T02:11:46.030Z,-5.50
2019-01-30T02:16:30.643Z,-5.50
2019-01-30T02:21:15.177Z,-5.30
2019-01-30T02:25:59.681Z,-5.20
2019-01-30T02:30:47.673Z,-5.10
2019-01-30T02:35:30.881Z,-4.90
2019-01-30T02:40:16.999Z,-4.80
2019-01-30T02:45:01.666Z,-4.80
2019-01-30T02:49:46.463Z,-4.80
2019-01-30T02:54:31.225Z,-4.80
2019-01-30T02:59:15.800Z,-4.90
2019-01-30T03:04:00.590Z,-4.70
2019-01-30T03:08:45.166Z,-4.70
2019-01-30T03:13:30.095Z,-4.80
2019-01-30T03:18:15.134Z,-4.80
2019-01-30T03:22:59.840Z,-4.80
2019-01-30T03:27:44.514Z,-4.90
2019-01-30T03:32:29.704Z,-4.90
2019-01-30T03:37:14.506Z,-5.00
2019-01-30T03:41:59.284Z,-4.80
2019-01-30T03:46:44.234Z,-4.70
2019-01-30T03:51:28.956Z,-4.40
2019-01-30T03:56:13.555Z,-4.30
2019-01-30T04:00:58.215Z,-4.20
2019-01-30T04:05:45.976Z,-4.30
2019-01-30T04:10:30.742Z,-4.20
2019-01-30T04:15:15.611Z,-4.20
2019-01-30T04:20:00.563Z,-4.20
2019-01-30T04:24:45.339Z,-4.10
2019-01-30T04:29:29.899Z,-4.10
2019-01-30T04:34:14.536Z,-4.20
2019-01-30T04:38:59.074Z,-4.10
2019-01-30T04:43:43.747Z,-4.20
2019-01-30T04:48:28.242Z,-4.30
2019-01-30T04:53:12.920Z,-4.20
2019-01-30T04:57:58.325Z,-4.30
2019-01-30T05:02:43.108Z,-4.30
2019-01-30T05:07:27.754Z,-4.30
2019-01-30T05:12:12.500Z,-4.40
2019-01-30T05:16:57.313Z,-4.50
2019-01-30T05:21:41.947Z,-4.30
2019-01-30T05:26:26.586Z,-4.40
2019-01-30T05:31:11.323Z,-4.40
2019-01-30T05:35:55.893Z,-4.40
2019-01-30T05:40:40.667Z,-4.40
2019-01-30T05:45:25.509Z,-4.50
2019-01-30T05:50:10.377Z,-4.60
2019-01-30T05:54:55.017Z,-4.60
2019-01-30T05:59:39.864Z,-4.70
2019-01-30T06:04:24.803Z,-4.70
2019-01-30T06:09:09.667Z,-4.70
2019-01-30T06:13:54.446Z,-4.70
2019-01-30T06:18:39.292Z,-4.60
2019-01-30T06:23:26.170Z,-4.70
2019-01-30T06:28:10.899Z,-4.80
2019-01-30T06:32:55.528Z,-4.90
2019-01-30T06:37:40.157Z,-5.20
2019-01-30T06:42:24.778Z,-5.20
2019-01-30T06:47:09.573Z,-5.20
2019-01-30T06:51:54.281Z,-5.10
2019-01-30T06:56:39.077Z,-5.00
2019-01-30T07:01:23.859Z,-4.90
2019-01-30T07:06:08.555Z,-4.80
2019-01-30T07:10:53.200Z,-4.60
2019-01-30T07:15:41.426Z,-4.70
2019-01-30T07:20:26.352Z,-4.60
2019-01-30T07:25:12.113Z,-4.50
2019-01-30T07:29:56.732Z,-4.40
2019-01-30T07:34:41.614Z,-4.30
2019-01-30T07:39:26.589Z,-4.20
2019-01-30T07:44:11.372Z,-4.20
2019-01-30T07:48:56.360Z,-4.20
2019-01-30T07:53:40.914Z,-4.10
2019-01-30T07:58:25.480Z,-4.00
2019-01-30T08:03:10.049Z,-3.90
2019-01-30T08:07:54.875Z,-3.80
2019-01-30T08:12:39.544Z,-3.80
2019-01-30T08:17:26.648Z,-3.50
2019-01-30T08:22:11.172Z,-3.30
2019-01-30T08:26:55.973Z,-3.20
2019-01-30T08:31:41.024Z,-3.10
2019-01-30T08:36:25.603Z,-2.80
2019-01-30T08:41:09.997Z,-2.60
2019-01-30T08:45:54.616Z,-2.40
2019-01-30T08:50:39.205Z,-2.10
2019-01-30T08:55:24.119Z,-1.90
2019-01-30T09:00:11.621Z,-1.60
2019-01-30T09:04:56.202Z,-1.40
2019-01-30T09:09:40.680Z,-1.10
2019-01-30T09:14:25.275Z,-0.90
2019-01-30T09:19:09.956Z,-0.70
2019-01-30T09:23:54.786Z,-0.50
2019-01-30T09:28:39.822Z,-0.40
2019-01-30T09:33:25.856Z,0.00
2019-01-30T09:38:10.823Z,0.10
2019-01-30T09:42:55.422Z,0.20
2019-01-30T09:47:39.902Z,0.30
2019-01-30T09:52:27.046Z,0.50
2019-01-30T09:57:11.276Z,0.50
2019-01-30T10:01:56.008Z,0.70
2019-01-30T10:06:41.028Z,0.80
2019-01-30T10:11:25.748Z,0.80
2019-01-30T10:16:11.085Z,0.80
2019-01-30T10:20:55.940Z,0.70
2019-01-30T10:25:40.756Z,0.90
2019-01-30T10:30:27.788Z,0.90
2019-01-30T10:35:12.790Z,1.20
2019-01-30T10:39:57.450Z,1.10
2019-01-30T10:44:42.622Z,1.00
2019-01-30T10:49:27.498Z,1.20
2019-01-30T10:54:12.315Z,1.20
2019-01-30T10:58:57.025Z,0.90
2019-01-30T11:03:41.604Z,1.10
2019-01-30T11:08:26.249Z,1.30
2019-01-30T11:13:11.057Z,1.40
2019-01-30T11:17:56.008Z,1.60
2019-01-30T11:22:43.000Z,1.50
2019-01-30T11:27:27.744Z,1.40
2019-01-30T11:32:12.692Z,1.70
2019-01-30T11:37:00.024Z,1.80
2019-01-30T11:41:43.738Z,1.90
2019-01-30T11:46:28.515Z,1.90
2019-01-30T11:51:15.042Z,2.00
2019-01-30T11:55:59.922Z,2.00
2019-01-30T12:01:10.002Z,2.00
2019-01-30T12:05:52.698Z,2.30
2019-01-30T12:10:37.857Z,2.50
2019-01-30T12:15:25.688Z,2.30
2019-01-30T12:20:17.734Z,2.40
2019-01-30T12:25:02.388Z,2.40
2019-01-30T12:30:06.876Z,2.20
2019-01-30T12:35:00.270Z,2.30
2019-01-30T12:40:07.620Z,2.40
2019-01-30T12:44:33.718Z,2.40
2019-01-30T12:49:19.173Z,2.40
2019-01-30T12:54:12.063Z,2.30
2019-01-30T12:58:59.555Z,2.30
2019-01-30T13:03:44.558Z,2.40
2019-01-30T13:08:31.158Z,2.40
2019-01-30T13:13:23.389Z,2.50
2019-01-30T13:18:25.929Z,2.40
2019-01-30T13:23:17.932Z,2.50
2019-01-30T13:28:47.020Z,2.30
2019-01-30T13:34:04.656Z,2.20
2019-01-30T13:38:58.368Z,2.10
2019-01-30T13:43:48.290Z,2.10
2019-01-30T13:48:33.168Z,2.00
2019-01-30T13:53:19.806Z,1.90
2019-01-30T13:58:09.582Z,1.80
2019-01-30T14:02:54.646Z,1.50
2019-01-30T14:07:39.326Z,1.30
2019-01-30T14:12:25.692Z,1.40
2019-01-30T14:17:10.682Z,1.40
2019-01-30T14:21:55.441Z,1.50
2019-01-30T14:26:40.348Z,1.50
2019-01-30T14:31:25.037Z,1.60
2019-01-30T14:36:11.794Z,1.60
2019-01-30T14:40:59.227Z,1.40
2019-01-30T14:45:45.350Z,1.30
2019-01-30T14:50:32.033Z,1.20
2019-01-30T14:55:19.746Z,1.00
2019-01-30T15:00:05.838Z,1.00
2019-01-30T15:04:53.010Z,0.80
2019-01-30T15:09:38.174Z,0.70
2019-01-30T15:14:22.922Z,0.70
2019-01-30T15:19:07.885Z,0.50
2019-01-30T15:23:55.014Z,0.40
2019-01-30T15:28:45.432Z,0.40
2019-01-30T15:33:30.306Z,0.20
2019-01-30T15:38:17.023Z,0.10
2019-01-30T15:43:02.519Z,0.00
2019-01-30T15:47:48.518Z,-0.20
2019-01-30T15:52:36.672Z,-0.30
2019-01-30T15:57:21.387Z,-0.40
2019-01-30T16:02:06.883Z,-0.50
2019-01-30T16:06:51.613Z,-0.60
2019-01-30T16:11:36.235Z,-0.60
2019-01-30T16:16:21.023Z,-0.70
2019-01-30T16:21:05.900Z,-0.50
2019-01-30T16:25:50.632Z,-0.50
2019-01-30T16:30:35.334Z,-0.50
2019-01-30T16:35:23.129Z,-0.60
2019-01-30T16:40:09.325Z,-0.60
2019-01-30T16:44:54.362Z,-0.90
2019-01-30T16:49:39.202Z,-0.90
2019-01-30T16:54:26.984Z,-1.00
2019-01-30T16:59:11.749Z,-1.00
2019-01-30T17:04:00.613Z,-1.10
2019-01-30T17:08:47.616Z,-1.00
2019-01-30T17:13:32.383Z,-1.00
2019-01-30T17:18:16.892Z,-1.10
2019-01-30T17:23:02.675Z,-1.20
2019-01-30T17:27:47.511Z,-1.50
2019-01-30T17:32:32.518Z,-1.50
2019-01-30T17:37:17.618Z,-1.40
2019-01-30T17:42:02.316Z,-1.20
2019-01-30T17:46:53.159Z,-1.00
2019-01-30T17:51:37.937Z,-0.90
2019-01-30T17:56:22.842Z,-1.00
2019-01-30T18:01:07.457Z,-1.20
2019-01-30T18:05:52.412Z,-1.50
2019-01-30T18:10:37.065Z,-1.60
2019-01-30T18:15:21.944Z,-1.50
2019-01-30T18:20:09.655Z,-1.50
2019-01-30T18:25:02.850Z,-1.40
2019-01-30T18:29:47.624Z,-1.20
2019-01-30T18:34:32.459Z,-1.30
2019-01-30T18:39:17.162Z,-1.30
2019-01-30T18:44:01.965Z,-1.10
2019-01-30T18:48:49.205Z,-1.10
2019-01-30T18:53:34.243Z,-0.90
2019-01-30T19:03:05.466Z,-0.80
2019-01-30T19:07:50.221Z,-0.60
2019-01-30T19:12:35.016Z,-0.50
2019-01-30T19:17:54.767Z,-0.50
2019-01-30T19:22:43.598Z,-0.40
2019-01-30T19:33:47.018Z,-0.50
2019-01-30T19:38:35.938Z,-0.50
2019-01-30T19:43:20.987Z,-0.70
2019-01-30T19:48:07.223Z,-0.60
2019-01-30T19:52:54.894Z,-0.50
2019-01-30T19:57:41.934Z,-0.50
2019-01-30T20:02:30.645Z,-0.40
2019-01-30T20:07:15.597Z,-0.30
2019-01-30T20:12:00.154Z,-0.20
2019-01-30T20:16:49.459Z,-0.20
2019-01-30T20:21:57.364Z,-0.20
2019-01-30T20:26:52.746Z,-0.10
2019-01-30T20:31:39.779Z,-0.10
2019-01-30T20:36:24.586Z,-0.20
2019-01-30T20:41:09.337Z,-0.30
2019-01-30T20:45:53.983Z,-0.40
2019-01-30T20:50:59.634Z,-0.50
2019-01-30T20:55:46.695Z,-0.60
2019-01-30T21:00:35.139Z,-0.70
2019-01-30T21:05:22.996Z,-0.70
2019-01-30T21:10:10.187Z,-0.70
2019-01-30T21:14:54.761Z,-0.80
2019-01-30T21:19:39.416Z,-0.90
2019-01-30T21:24:24.050Z,-1.00
2019-01-30T21:29:09.523Z,-1.10
2019-01-30T21:33:54.545Z,-1.00
2019-01-30T21:38:39.220Z,-0.90
2019-01-30T21:43:23.941Z,-0.80
2019-01-30T21:48:08.452Z,-0.70
2019-01-30T21:52:53.105Z,-0.70
2019-01-30T21:57:37.729Z,-0.70
2019-01-30T22:02:22.218Z,-0.50
2019-01-30T22:07:07.004Z,-0.50
2019-01-30T22:11:51.549Z,-0.60
2019-01-30T22:16:36.126Z,-0.50
2019-01-30T22:21:20.791Z,-0.40
2019-01-30T22:26:05.342Z,-0.40
2019-01-30T22:30:50.043Z,-0.30
2019-01-30T22:35:34.582Z,-0.30
2019-01-30T22:40:19.291Z,-0.20
2019-01-30T22:45:04.018Z,-0.10
2019-01-30T22:49:48.650Z,0.00
2019-01-30T22:54:33.235Z,0.00
2019-01-30T22:59:17.910Z,0.00
2019-01-30T23:04:14.639Z,0.00
2019-01-30T23:09:52.031Z,0.00
2019-01-30T23:14:49.918Z,-0.10
2019-01-30T23:20:13.735Z,-0.10
2019-01-30T23:26:00.476Z,-0.10
2019-01-30T23:31:28.849Z,0.00
2019-01-30T23:37:00.656Z,-0.10
2019-01-30T23:42:32.380Z,-0.10
2019-01-30T23:48:12.923Z,-0.10
2019-01-30T23:53:27.643Z,-0.10
2019-01-30T23:58:45.156Z,-0.10
